createdAt,value
2018-12-16T00:01:24.307Z,81.07
2018-12-16T00:03:54.242Z,73.43
2018-12-16T00:06:24.398Z,67.37
2018-12-16T00:08:54.322Z,60.87
2018-12-16T00:11:24.282Z,59.30
2018-12-16T00:13:54.194Z,61.13
2018-12-16T00:16:24.160Z,60.83
2018-12-16T00:18:54.016Z,60.63
2018-12-16T00:21:23.797Z,63.10
2018-12-16T00:23:53.647Z,59.57
2018-12-16T00:26:23.732Z,63.70
2018-12-16T00:28:53.507Z,61.63
2018-12-16T00:31:23.422Z,62.47
2018-12-16T00:33:53.238Z,62.90
2018-12-16T00:36:23.207Z,63.00
2018-12-16T00:38:53.023Z,63.87
2018-12-16T00:41:22.888Z,60.10
2018-12-16T00:43:52.697Z,61.30
2018-12-16T00:46:22.589Z,59.33
2018-12-16T00:48:52.417Z,63.77
2018-12-16T00:51:22.547Z,56.17
2018-12-16T00:53:52.397Z,56.90
2018-12-16T00:56:22.372Z,59.70
2018-12-16T00:58:52.182Z,60.23
2018-12-16T01:01:22.333Z,59.17
2018-12-16T01:03:52.252Z,62.00
2018-12-16T01:06:22.318Z,58.07
2018-12-16T01:08:52.117Z,61.23
2018-12-16T01:11:22.047Z,58.37
2018-12-16T01:13:51.867Z,58.67
2018-12-16T01:16:21.957Z,61.33
2018-12-16T01:18:51.967Z,58.37
2018-12-16T01:21:21.737Z,58.13
2018-12-16T01:23:51.712Z,65.57
2018-12-16T01:26:21.487Z,57.30
2018-12-16T01:28:51.267Z,62.30
2018-12-16T01:31:21.341Z,61.07
2018-12-16T01:33:51.249Z,62.27
2018-12-16T01:36:21.022Z,67.00
2018-12-16T01:38:50.922Z,65.87
2018-12-16T01:41:20.842Z,61.07
2018-12-16T01:43:50.802Z,60.80
2018-12-16T01:46:20.647Z,63.27
2018-12-16T01:48:50.428Z,56.30
2018-12-16T01:51:20.253Z,62.67
2018-12-16T01:53:50.202Z,65.77
2018-12-16T01:56:20.127Z,58.53
2018-12-16T01:58:49.892Z,62.40
2018-12-16T02:01:19.754Z,62.73
2018-12-16T02:03:49.662Z,68.17
2018-12-16T02:06:19.507Z,60.13
2018-12-16T02:08:49.462Z,59.07
2018-12-16T02:11:19.223Z,62.10
2018-12-16T02:13:48.982Z,61.97
2018-12-16T02:16:19.052Z,59.13
2018-12-16T02:18:48.899Z,60.43
2018-12-16T02:21:18.792Z,64.03
2018-12-16T02:23:48.674Z,59.33
2018-12-16T02:26:18.542Z,61.03
2018-12-16T02:28:48.312Z,57.10
2018-12-16T02:31:18.309Z,58.40
2018-12-16T02:33:48.131Z,62.40
2018-12-16T02:36:20.982Z,62.23
2018-12-16T02:38:50.717Z,55.47
2018-12-16T02:41:20.572Z,59.67
2018-12-16T02:43:50.462Z,59.87
2018-12-16T02:46:20.267Z,59.47
2018-12-16T02:48:50.122Z,61.13
2018-12-16T02:51:20.092Z,63.87
2018-12-16T02:53:49.998Z,61.63
2018-12-16T02:56:19.748Z,62.23
2018-12-16T02:58:49.562Z,63.77
2018-12-16T03:01:19.473Z,55.93
2018-12-16T03:03:49.172Z,56.10
2018-12-16T03:06:18.967Z,53.73
2018-12-16T03:08:48.826Z,60.40
2018-12-16T03:11:18.713Z,58.77
2018-12-16T03:13:48.548Z,56.77
2018-12-16T03:16:18.368Z,56.03
2018-12-16T03:18:48.252Z,61.10
2018-12-16T03:21:18.083Z,54.27
2018-12-16T03:23:47.953Z,57.50
2018-12-16T03:26:18.148Z,53.30
2018-12-16T03:28:47.972Z,53.50
2018-12-16T03:31:17.736Z,54.00
2018-12-16T03:33:47.453Z,51.93
2018-12-16T03:36:17.202Z,55.10
2018-12-16T03:38:46.983Z,58.03
2018-12-16T03:41:16.887Z,60.03
2018-12-16T03:43:46.988Z,55.80
2018-12-16T03:46:16.923Z,55.70
2018-12-16T03:48:46.709Z,55.20
2018-12-16T03:51:16.547Z,57.00
2018-12-16T03:53:46.222Z,53.37
2018-12-16T03:56:16.308Z,51.17
2018-12-16T03:58:56.682Z,52.57
2018-12-16T04:01:26.512Z,53.50
2018-12-16T04:03:56.242Z,56.43
2018-12-16T04:06:25.987Z,54.83
2018-12-16T04:08:55.727Z,55.83
2018-12-16T04:11:25.502Z,55.60
2018-12-16T04:13:55.262Z,51.70
2018-12-16T04:16:25.103Z,57.73
2018-12-16T04:18:54.890Z,59.67
2018-12-16T04:21:25.023Z,56.30
2018-12-16T04:23:54.933Z,59.33
2018-12-16T04:26:24.725Z,51.73
2018-12-16T04:28:54.497Z,56.20
2018-12-16T04:31:24.528Z,52.97
2018-12-16T04:33:54.259Z,60.93
2018-12-16T04:36:24.082Z,52.37
2018-12-16T04:39:26.087Z,55.43
2018-12-16T04:41:56.115Z,54.67
2018-12-16T04:44:25.878Z,57.23
2018-12-16T04:46:55.701Z,58.63
2018-12-16T04:49:25.491Z,58.27
2018-12-16T04:51:55.312Z,60.50
2018-12-16T04:54:25.114Z,58.30
2018-12-16T04:56:54.978Z,59.87
2018-12-16T04:59:24.782Z,55.53
2018-12-16T05:01:54.847Z,61.57
2018-12-16T05:04:24.628Z,54.77
2018-12-16T05:06:54.487Z,62.20
2018-12-16T05:09:24.250Z,60.87
2018-12-16T05:11:54.120Z,59.47
2018-12-16T05:14:23.937Z,52.53
2018-12-16T05:16:53.788Z,56.40
2018-12-16T05:19:23.542Z,65.13
2018-12-16T05:21:53.322Z,61.70
2018-12-16T05:24:23.082Z,57.97
2018-12-16T05:26:53.127Z,62.33
2018-12-16T05:29:22.938Z,58.60
2018-12-16T05:31:52.889Z,57.50
2018-12-16T05:34:22.678Z,59.40
2018-12-16T05:36:52.468Z,56.43
2018-12-16T05:39:22.282Z,58.87
2018-12-16T05:41:52.071Z,60.53
2018-12-16T05:44:21.842Z,58.30
2018-12-16T05:46:51.707Z,60.47
2018-12-16T05:49:21.422Z,61.57
2018-12-16T05:51:51.202Z,58.63
2018-12-16T05:54:20.926Z,61.10
2018-12-16T05:56:50.837Z,62.03
2018-12-16T05:59:20.631Z,59.10
2018-12-16T06:01:50.562Z,67.73
2018-12-16T06:04:20.278Z,66.27
2018-12-16T06:06:50.062Z,61.97
2018-12-16T06:09:19.942Z,69.50
2018-12-16T06:11:49.918Z,59.07
2018-12-16T06:14:19.897Z,59.63
2018-12-16T06:16:49.647Z,63.13
2018-12-16T06:19:19.450Z,57.60
2018-12-16T06:21:49.227Z,57.23
2018-12-16T06:24:19.150Z,57.67
2018-12-16T06:26:49.157Z,54.33
2018-12-16T06:29:19.411Z,59.67
2018-12-16T06:31:49.267Z,58.30
2018-12-16T06:34:19.557Z,58.90
2018-12-16T06:36:49.312Z,59.40
2018-12-16T06:39:19.107Z,60.77
2018-12-16T06:41:48.952Z,54.13
2018-12-16T06:44:18.787Z,61.77
2018-12-16T06:46:48.725Z,56.37
2018-12-16T06:49:18.608Z,63.37
2018-12-16T06:51:48.477Z,58.63
2018-12-16T06:54:18.247Z,55.73
2018-12-16T06:56:48.082Z,61.30
2018-12-16T06:59:17.882Z,59.53
2018-12-16T07:01:47.721Z,56.67
2018-12-16T07:04:17.582Z,57.57
2018-12-16T07:06:47.506Z,59.70
2018-12-16T07:09:17.272Z,58.33
2018-12-16T07:11:47.387Z,61.17
2018-12-16T07:14:17.185Z,65.50
2018-12-16T07:16:46.992Z,59.70
2018-12-16T07:19:16.831Z,57.73
2018-12-16T07:21:46.787Z,59.23
2018-12-16T07:24:16.571Z,56.93
2018-12-16T07:26:46.371Z,58.47
2018-12-16T07:29:16.052Z,63.07
2018-12-16T07:31:45.767Z,56.43
2018-12-16T07:34:15.472Z,59.70
2018-12-16T07:36:45.585Z,61.13
2018-12-16T07:39:15.377Z,58.63
2018-12-16T07:41:45.226Z,56.83
2018-12-16T07:44:14.992Z,57.83
2018-12-16T07:46:44.871Z,60.93
2018-12-16T07:49:14.791Z,67.73
2018-12-16T07:51:44.941Z,58.97
2018-12-16T07:54:16.236Z,63.57
2018-12-16T07:56:46.346Z,60.83
2018-12-16T07:59:16.161Z,60.47
2018-12-16T08:02:16.234Z,64.73
2018-12-16T08:04:46.031Z,66.40
2018-12-16T08:07:15.896Z,65.60
2018-12-16T08:09:45.693Z,67.90
2018-12-16T08:12:15.686Z,68.87
2018-12-16T08:14:45.697Z,60.27
2018-12-16T08:17:15.652Z,63.43
2018-12-16T08:19:45.927Z,66.97
2018-12-16T08:22:16.004Z,65.70
2018-12-16T08:24:46.062Z,66.23
2018-12-16T08:27:15.997Z,60.03
2018-12-16T08:29:46.097Z,63.87
2018-12-16T08:32:16.252Z,59.30
2018-12-16T08:34:46.147Z,79.97
2018-12-16T08:37:16.142Z,59.77
2018-12-16T08:39:46.045Z,61.60
2018-12-16T08:42:15.867Z,63.57
2018-12-16T08:44:45.627Z,63.80
2018-12-16T08:47:15.927Z,59.20
2018-12-16T08:49:45.812Z,56.77
2018-12-16T08:52:16.123Z,71.53
2018-12-16T08:54:46.120Z,77.47
2018-12-16T08:57:16.187Z,76.97
2018-12-16T08:59:46.082Z,71.53
2018-12-16T09:02:15.907Z,63.37
2018-12-16T09:04:51.887Z,64.80
2018-12-16T09:07:22.034Z,63.10
2018-12-16T09:09:51.893Z,63.50
2018-12-16T09:12:21.739Z,58.43
2018-12-16T09:14:51.882Z,63.73
2018-12-16T09:17:22.053Z,68.13
2018-12-16T09:19:51.829Z,70.87
2018-12-16T09:22:21.843Z,75.00
2018-12-16T09:24:51.752Z,75.90
2018-12-16T09:27:21.818Z,73.37
2018-12-16T09:29:51.613Z,73.63
2018-12-16T09:32:21.623Z,73.33
2018-12-16T09:34:51.447Z,82.83
2018-12-16T09:37:21.309Z,79.47
2018-12-16T09:39:51.173Z,75.87
2018-12-16T09:42:21.132Z,81.57
2018-12-16T09:44:51.142Z,84.27
2018-12-16T09:47:21.337Z,77.33
2018-12-16T09:49:51.142Z,82.33
2018-12-16T09:52:21.217Z,76.67
2018-12-16T09:54:51.447Z,71.83
2018-12-16T09:57:21.383Z,78.47
2018-12-16T09:59:51.198Z,83.80
2018-12-16T10:02:21.048Z,82.40
2018-12-16T10:04:51.337Z,84.10
2018-12-16T10:07:21.209Z,84.47
2018-12-16T10:09:51.117Z,90.83
2018-12-16T10:12:21.067Z,92.47
2018-12-16T10:14:50.998Z,85.83
2018-12-16T10:17:21.172Z,87.27
2018-12-16T10:19:51.028Z,90.17
2018-12-16T10:22:20.832Z,83.13
2018-12-16T10:24:51.433Z,82.17
2018-12-16T10:27:21.738Z,83.67
2018-12-16T10:29:51.801Z,89.57
2018-12-16T10:32:21.744Z,89.73
2018-12-16T10:34:51.492Z,80.47
2018-12-16T10:37:21.462Z,72.33
2018-12-16T10:39:51.167Z,70.90
2018-12-16T10:42:21.102Z,78.03
2018-12-16T10:44:50.852Z,67.83
2018-12-16T10:47:20.662Z,68.63
2018-12-16T10:49:50.813Z,66.77
2018-12-16T10:52:20.802Z,64.13
2018-12-16T10:54:50.512Z,60.17
2018-12-16T10:57:20.592Z,63.43
2018-12-16T10:59:50.317Z,65.30
2018-12-16T11:02:20.093Z,60.33
2018-12-16T11:04:50.123Z,62.60
2018-12-16T11:07:20.630Z,59.77
2018-12-16T11:09:51.643Z,57.77
2018-12-16T11:12:21.763Z,50.87
2018-12-16T11:14:51.527Z,57.20
2018-12-16T11:17:21.318Z,52.03
2018-12-16T11:19:51.172Z,53.90
2018-12-16T11:22:20.923Z,50.30
2018-12-16T11:24:50.840Z,49.53
2018-12-16T11:27:20.833Z,32.70
2018-12-16T11:29:50.673Z,43.27
2018-12-16T11:32:20.458Z,41.03
2018-12-16T11:34:50.230Z,49.27
2018-12-16T11:37:20.008Z,45.03
2018-12-16T11:39:49.702Z,40.73
2018-12-16T11:42:19.559Z,45.83
2018-12-16T11:44:49.387Z,49.93
2018-12-16T11:47:19.213Z,43.33
2018-12-16T11:49:48.998Z,46.33
2018-12-16T11:52:18.784Z,37.40
2018-12-16T11:54:48.543Z,40.77
2018-12-16T11:57:18.628Z,45.47
2018-12-16T11:59:48.493Z,38.10
2018-12-16T12:02:18.323Z,41.77
2018-12-16T12:04:48.069Z,40.87
2018-12-16T12:07:17.860Z,43.47
2018-12-16T12:09:47.643Z,38.73
2018-12-16T12:12:17.454Z,39.37
2018-12-16T12:14:47.478Z,41.20
2018-12-16T12:17:17.462Z,47.13
2018-12-16T12:19:47.343Z,42.10
2018-12-16T12:22:17.608Z,42.43
2018-12-16T12:24:47.549Z,45.30
2018-12-16T12:27:17.554Z,39.63
2018-12-16T12:29:47.588Z,40.93
2018-12-16T12:32:17.603Z,44.30
2018-12-16T12:34:47.804Z,38.37
2018-12-16T12:37:18.765Z,39.23
2018-12-16T12:39:48.579Z,38.80
2018-12-16T12:42:18.699Z,37.67
2018-12-16T12:44:48.909Z,40.27
2018-12-16T12:47:19.008Z,41.87
2018-12-16T12:49:49.014Z,38.53
2018-12-16T12:52:18.965Z,40.10
2018-12-16T12:54:48.913Z,39.00
2018-12-16T12:57:18.905Z,41.00
2018-12-16T12:59:49.160Z,42.57
2018-12-16T13:02:19.149Z,47.23
2018-12-16T13:04:49.114Z,46.17
2018-12-16T13:07:19.183Z,50.20
2018-12-16T13:09:49.198Z,44.73
2018-12-16T13:12:19.894Z,46.00
2018-12-16T13:14:49.790Z,44.43
2018-12-16T13:17:19.879Z,41.67
2018-12-16T13:19:49.810Z,49.93
2018-12-16T13:22:19.721Z,44.60
2018-12-16T13:25:00.174Z,45.17
2018-12-16T13:27:30.183Z,46.07
2018-12-16T13:30:00.054Z,48.67
2018-12-16T13:32:29.999Z,46.97
2018-12-16T13:34:59.859Z,46.90
2018-12-16T13:37:29.757Z,49.90
2018-12-16T13:39:59.599Z,51.70
2018-12-16T13:42:29.429Z,53.47
2018-12-16T13:44:59.394Z,52.87
2018-12-16T13:47:29.675Z,51.10
2018-12-16T13:49:59.699Z,57.27
2018-12-16T13:52:29.588Z,53.07
2018-12-16T13:54:59.599Z,51.67
2018-12-16T13:57:30.424Z,45.70
2018-12-16T14:00:00.239Z,50.90
2018-12-16T14:02:30.279Z,51.23
2018-12-16T14:05:00.139Z,54.47
2018-12-16T14:07:30.009Z,52.57
2018-12-16T14:09:59.919Z,53.70
2018-12-16T14:12:30.019Z,50.00
2018-12-16T14:15:03.001Z,51.20
2018-12-16T14:17:35.086Z,51.30
2018-12-16T14:20:05.559Z,49.37
2018-12-16T14:22:35.384Z,50.80
2018-12-16T14:25:05.914Z,55.63
2018-12-16T14:27:35.864Z,51.97
2018-12-16T14:30:07.779Z,56.53
2018-12-16T14:32:37.769Z,51.30
2018-12-16T14:35:08.806Z,53.67
2018-12-16T14:37:38.708Z,64.23
2018-12-16T14:40:10.410Z,60.33
2018-12-16T14:42:40.609Z,60.27
2018-12-16T14:45:11.348Z,57.87
2018-12-16T14:47:41.210Z,69.70
2018-12-16T14:50:12.074Z,66.10
2018-12-16T14:52:41.968Z,65.83
2018-12-16T14:55:11.924Z,68.73
2018-12-16T14:57:42.263Z,73.17
2018-12-16T15:00:13.326Z,69.10
2018-12-16T15:02:43.354Z,76.23
2018-12-16T15:05:13.609Z,69.17
2018-12-16T15:07:43.473Z,73.03
2018-12-16T15:10:17.174Z,73.67
2018-12-16T15:12:47.280Z,66.33
2018-12-16T15:15:20.380Z,65.30
2018-12-16T15:17:53.524Z,66.43
2018-12-16T15:20:23.554Z,73.77
2018-12-16T15:22:53.768Z,81.07
2018-12-16T15:25:23.888Z,81.90
2018-12-16T15:27:53.914Z,75.77
2018-12-16T15:30:24.854Z,69.90
2018-12-16T15:32:54.970Z,73.57
2018-12-16T15:35:25.329Z,69.07
2018-12-16T15:37:55.484Z,69.60
2018-12-16T15:40:25.418Z,70.97
2018-12-16T15:42:56.588Z,51.90
2018-12-16T15:45:26.661Z,55.50
2018-12-16T15:47:56.848Z,54.07
2018-12-16T15:50:26.834Z,47.00
2018-12-16T15:52:59.858Z,47.00
2018-12-16T15:55:31.694Z,43.53
2018-12-16T15:58:02.229Z,36.87
2018-12-16T16:00:33.508Z,43.73
2018-12-16T16:03:03.745Z,42.60
2018-12-16T16:05:35.603Z,40.53
2018-12-16T16:08:06.059Z,45.27
2018-12-16T16:10:37.108Z,45.13
2018-12-16T16:13:11.289Z,45.97
2018-12-16T16:15:41.633Z,48.23
2018-12-16T16:18:14.399Z,47.77
2018-12-16T16:20:44.733Z,46.40
2018-12-16T16:23:18.408Z,49.93
2018-12-16T16:25:48.264Z,46.03
2018-12-16T16:28:19.263Z,45.73
2018-12-16T16:30:52.108Z,50.43
2018-12-16T16:33:22.513Z,49.20
2018-12-16T16:35:52.589Z,43.30
2018-12-16T16:38:22.946Z,51.43
2018-12-16T16:40:54.188Z,47.57
2018-12-16T16:43:29.734Z,41.83
2018-12-16T16:46:02.243Z,41.63
2018-12-16T16:48:34.279Z,57.67
2018-12-16T16:51:08.014Z,48.83
2018-12-16T16:53:56.915Z,43.17
2018-12-16T16:56:55.969Z,40.37
2018-12-16T17:05:46.259Z,44.00
2018-12-16T17:08:46.431Z,40.07
2018-12-16T17:11:28.098Z,48.63
2018-12-16T17:13:58.590Z,49.40
2018-12-16T17:16:28.894Z,43.93
2018-12-16T17:19:00.624Z,45.23
2018-12-16T17:21:31.039Z,37.63
2018-12-16T17:24:01.264Z,43.87
2018-12-16T17:26:31.230Z,43.60
2018-12-16T17:29:01.348Z,55.13
2018-12-16T17:31:34.421Z,57.43
2018-12-16T17:34:05.149Z,47.07
2018-12-16T17:36:35.099Z,46.77
2018-12-16T17:39:07.629Z,36.27
2018-12-16T17:41:37.588Z,38.07
2018-12-16T17:44:07.609Z,45.37
2018-12-16T17:46:37.669Z,53.60
2018-12-16T17:49:07.694Z,43.80
2018-12-16T17:51:37.693Z,41.23
2018-12-16T17:54:07.644Z,49.90
2018-12-16T17:56:37.554Z,46.97
2018-12-16T17:59:07.607Z,48.43
2018-12-16T18:01:37.417Z,42.33
2018-12-16T18:04:10.533Z,40.03
2018-12-16T18:06:40.673Z,42.20
2018-12-16T18:09:10.663Z,53.43
2018-12-16T18:11:40.763Z,71.03
2018-12-16T18:14:10.809Z,56.50
2018-12-16T18:16:40.828Z,52.23
2018-12-16T18:19:10.790Z,49.70
2018-12-16T18:21:40.784Z,48.23
2018-12-16T18:24:10.664Z,51.23
2018-12-16T18:26:44.099Z,52.93
2018-12-16T18:29:12.424Z,52.60
2018-12-16T18:31:42.356Z,46.97
2018-12-16T18:34:12.339Z,52.17
2018-12-16T18:36:42.333Z,47.57
2018-12-16T18:39:12.235Z,44.93
2018-12-16T18:41:42.326Z,47.80
2018-12-16T18:44:12.264Z,41.03
2018-12-16T18:46:42.154Z,46.17
2018-12-16T18:49:12.109Z,42.97
2018-12-16T18:51:42.069Z,51.07
2018-12-16T18:54:11.973Z,47.07
2018-12-16T18:56:41.948Z,48.93
2018-12-16T18:59:11.791Z,49.13
2018-12-16T19:01:41.759Z,51.67
2018-12-16T19:04:11.800Z,55.63
2018-12-16T19:06:41.698Z,49.63
2018-12-16T19:09:13.838Z,44.43
2018-12-16T19:11:43.861Z,46.43
2018-12-16T19:14:13.788Z,51.90
2018-12-16T19:16:43.819Z,47.23
2018-12-16T19:19:13.968Z,43.20
2018-12-16T19:21:43.884Z,43.53
2018-12-16T19:24:14.046Z,44.67
2018-12-16T19:26:47.229Z,43.30
2018-12-16T19:29:19.319Z,48.83
2018-12-16T19:31:49.594Z,50.33
2018-12-16T19:34:19.494Z,45.83
2018-12-16T19:36:49.793Z,42.87
2018-12-16T19:39:19.724Z,44.27
2018-12-16T19:41:53.013Z,51.40
2018-12-16T19:44:24.582Z,51.13
2018-12-16T19:46:54.623Z,56.60
2018-12-16T19:49:24.553Z,55.87
2018-12-16T19:51:54.369Z,59.93
2018-12-16T19:54:24.584Z,51.57
2018-12-16T19:56:54.516Z,55.20
2018-12-16T19:59:24.475Z,64.03
2018-12-16T20:01:54.583Z,91.60
2018-12-16T20:04:26.658Z,69.03
2018-12-16T20:06:56.542Z,99.40
2018-12-16T20:09:26.378Z,77.43
2018-12-16T20:11:56.373Z,63.30
2018-12-16T20:14:26.353Z,72.60
2018-12-16T20:16:56.234Z,81.20
2018-12-16T20:19:26.224Z,76.23
2018-12-16T20:21:56.143Z,65.90
2018-12-16T20:24:26.223Z,62.33
2018-12-16T20:26:56.448Z,64.07
2018-12-16T20:29:26.623Z,64.97
2018-12-16T20:31:58.178Z,64.37
2018-12-16T20:34:28.390Z,63.00
2018-12-16T20:36:58.328Z,56.93
2018-12-16T20:39:28.222Z,62.33
2018-12-16T20:41:58.424Z,58.10
2018-12-16T20:44:29.585Z,57.10
2018-12-16T20:47:00.138Z,57.87
2018-12-16T20:49:30.395Z,61.50
2018-12-16T20:52:00.406Z,55.70
2018-12-16T20:54:30.424Z,62.70
2018-12-16T20:57:00.553Z,56.13
2018-12-16T20:59:31.033Z,58.27
2018-12-16T21:02:01.153Z,60.60
2018-12-16T21:04:32.288Z,59.90
2018-12-16T21:07:02.300Z,59.67
2018-12-16T21:09:32.303Z,58.73
2018-12-16T21:12:04.795Z,60.50
2018-12-16T21:14:39.591Z,59.43
2018-12-16T21:19:18.616Z,62.07
2018-12-16T21:21:48.645Z,63.97
2018-12-16T21:24:18.764Z,66.60
2018-12-16T21:26:48.853Z,72.27
2018-12-16T21:29:18.865Z,80.17
2018-12-16T21:31:48.824Z,71.80
2018-12-16T21:34:18.862Z,66.13
2018-12-16T21:36:48.998Z,66.97
2018-12-16T21:39:19.073Z,80.80
2018-12-16T21:41:48.953Z,76.37
2018-12-16T21:44:19.073Z,83.97
2018-12-16T21:46:49.397Z,83.20
2018-12-16T21:49:19.638Z,72.10
2018-12-16T21:51:49.843Z,67.60
2018-12-16T21:54:20.544Z,70.97
2018-12-16T21:56:50.468Z,70.33
2018-12-16T21:59:20.464Z,65.90
2018-12-16T22:01:50.853Z,67.70
2018-12-16T22:04:20.883Z,70.03
2018-12-16T22:06:50.737Z,74.77
2018-12-16T22:09:23.604Z,68.50
2018-12-16T22:11:53.938Z,69.87
2018-12-16T22:14:23.897Z,73.37
2018-12-16T22:16:53.763Z,71.10
2018-12-16T22:19:23.553Z,75.53
2018-12-16T22:21:53.379Z,75.43
2018-12-16T22:24:23.322Z,71.07
2018-12-16T22:26:53.238Z,74.07
2018-12-16T22:29:23.213Z,89.33
2018-12-16T22:31:53.073Z,107.47
2018-12-16T22:34:22.968Z,126.47
2018-12-16T22:36:52.725Z,93.67
2018-12-16T22:39:22.672Z,87.93
2018-12-16T22:41:52.827Z,93.00
2018-12-16T22:44:22.702Z,83.23
2018-12-16T22:46:52.588Z,96.03
2018-12-16T22:49:22.638Z,101.63
2018-12-16T22:51:52.443Z,95.93
2018-12-16T22:54:22.223Z,80.30
2018-12-16T22:56:52.057Z,88.97
2018-12-16T22:59:22.219Z,90.13
2018-12-16T23:01:52.162Z,86.17
2018-12-16T23:04:22.208Z,100.40
2018-12-16T23:06:52.242Z,90.00
2018-12-16T23:09:22.109Z,85.80
2018-12-16T23:11:52.167Z,91.20
2018-12-16T23:14:22.133Z,99.57
2018-12-16T23:16:52.142Z,91.30
2018-12-16T23:19:22.097Z,100.30
2018-12-16T23:21:51.877Z,91.13
2018-12-16T23:24:22.617Z,87.27
2018-12-16T23:26:53.433Z,83.23
2018-12-16T23:29:23.688Z,76.23
2018-12-16T23:31:54.217Z,88.20
2018-12-16T23:34:24.247Z,75.23
2018-12-16T23:36:54.486Z,84.13
2018-12-16T23:39:24.526Z,82.47
2018-12-16T23:41:54.242Z,78.27
2018-12-16T23:44:24.137Z,79.17
2018-12-16T23:46:53.952Z,87.03
2018-12-16T23:49:23.944Z,78.13
2018-12-16T23:51:53.806Z,78.20
2018-12-16T23:54:23.845Z,77.83
2018-12-16T23:56:53.871Z,78.77
2018-12-16T23:59:23.787Z,75.27
